Terminal Aerodrome Forecast
Issued by NWS

Home | Current Version | Previous Version | Text Only | Print | Product List | Glossary On
Versions: 1 2 3 4 5 6 7 8 9 10 11 12 13 14
000
FTUS46 KMTR 010500
TAFSJC
TAF
KSJC 010522Z 0106/0206 30006KT P6SM SCT180
     FM011000 VRB03KT P6SM SCT180
     FM011900 30011KT P6SM SKC
     FM020500 29005KT P6SM SKC=

USA.gov is the U.S. government's official web portal to all federal, state and local government web resources and services.